createdAt,value
2022-10-08T00:01:17.536Z,86.29
2022-10-08T00:03:48.126Z,86.47
2022-10-08T00:06:28.339Z,86.31
2022-10-08T00:09:02.493Z,86.18
2022-10-08T00:11:39.289Z,86.29
2022-10-08T00:14:09.384Z,86.03
2022-10-08T00:16:41.665Z,86.14
2022-10-08T00:19:14.918Z,85.99
2022-10-08T00:21:44.804Z,85.93
2022-10-08T00:24:17.889Z,85.85
2022-10-08T00:26:45.366Z,86.22
2022-10-08T00:29:17.267Z,86.35
2022-10-08T00:31:47.752Z,86.31
2022-10-08T00:34:23.599Z,86.21
2022-10-08T00:36:53.417Z,86.37
2022-10-08T00:39:23.163Z,86.42
2022-10-08T00:41:53.647Z,86.41
2022-10-08T00:44:51.744Z,86.61
2022-10-08T00:47:33.409Z,86.80
2022-10-08T00:50:23.803Z,87.49
2022-10-08T00:53:02.872Z,86.94
2022-10-08T00:55:30.573Z,86.72
2022-10-08T00:58:03.137Z,86.89
2022-10-08T01:00:31.742Z,86.78
2022-10-08T01:02:58.950Z,86.39
2022-10-08T01:05:45.831Z,86.26
2022-10-08T01:08:34.150Z,86.46
2022-10-08T01:11:29.960Z,86.20
2022-10-08T01:14:16.308Z,86.47
2022-10-08T01:17:13.931Z,87.15
2022-10-08T01:20:21.313Z,85.83
2022-10-08T01:23:19.982Z,86.27
2022-10-08T01:26:30.612Z,86.51
2022-10-08T01:29:09.307Z,86.70
2022-10-08T01:31:45.967Z,86.65
2022-10-08T01:34:34.746Z,86.68
2022-10-08T01:37:03.341Z,86.73
2022-10-08T01:39:35.012Z,86.63
2022-10-08T01:42:04.279Z,86.78
2022-10-08T01:44:41.149Z,86.88
2022-10-08T01:47:14.327Z,87.03
2022-10-08T01:49:50.001Z,87.26
2022-10-08T01:52:25.450Z,87.31
2022-10-08T01:54:59.002Z,87.23
2022-10-08T01:57:28.775Z,87.32
2022-10-08T02:00:02.253Z,87.46
2022-10-08T02:02:29.385Z,87.47
2022-10-08T02:04:57.146Z,87.78
2022-10-08T02:07:27.838Z,87.98
2022-10-08T02:10:02.877Z,87.76
2022-10-08T02:12:30.008Z,88.44
2022-10-08T02:14:59.040Z,87.86
2022-10-08T02:18:00.090Z,87.40
2022-10-08T02:20:35.419Z,87.64
2022-10-08T02:23:25.030Z,87.71
2022-10-08T02:26:04.606Z,87.37
2022-10-08T02:28:43.574Z,87.61
2022-10-08T02:31:26.427Z,87.59
2022-10-08T02:34:17.037Z,87.88
2022-10-08T02:36:53.397Z,87.42
2022-10-08T02:39:21.747Z,87.57
2022-10-08T02:41:58.031Z,87.37
2022-10-08T02:44:39.393Z,87.54
2022-10-08T02:47:12.798Z,87.56
2022-10-08T02:50:02.881Z,87.43
2022-10-08T02:52:37.046Z,87.72
2022-10-08T02:55:19.391Z,88.10
2022-10-08T02:57:58.696Z,87.89
2022-10-08T03:00:35.434Z,88.02
2022-10-08T03:03:12.957Z,87.99
2022-10-08T03:05:42.949Z,88.11
2022-10-08T03:08:14.979Z,88.16
2022-10-08T03:10:43.999Z,88.28
2022-10-08T03:13:13.305Z,88.28
2022-10-08T03:15:41.649Z,88.26
2022-10-08T03:18:12.149Z,88.48
2022-10-08T03:20:45.678Z,88.57
2022-10-08T03:23:17.810Z,88.46
2022-10-08T03:25:45.120Z,88.58
2022-10-08T03:28:12.308Z,88.56
2022-10-08T03:30:39.410Z,88.57
2022-10-08T03:33:06.441Z,88.42
2022-10-08T03:35:33.288Z,88.70
2022-10-08T03:38:00.096Z,88.62
2022-10-08T03:40:26.865Z,88.66
2022-10-08T03:42:53.631Z,88.87
2022-10-08T03:45:20.618Z,88.71
2022-10-08T03:47:51.981Z,88.55
2022-10-08T03:50:22.336Z,88.65
2022-10-08T03:52:49.754Z,88.80
2022-10-08T03:55:16.908Z,88.57
2022-10-08T03:57:43.873Z,88.55
2022-10-08T04:00:11.550Z,88.66
2022-10-08T04:02:38.784Z,88.67
2022-10-08T04:05:06.395Z,88.78
2022-10-08T04:07:33.179Z,89.03
2022-10-08T04:10:00.131Z,89.07
2022-10-08T04:12:26.912Z,88.89
2022-10-08T04:14:53.736Z,88.84
2022-10-08T04:17:20.482Z,89.31
2022-10-08T04:19:47.245Z,89.05
2022-10-08T04:22:14.017Z,89.18
2022-10-08T04:24:41.163Z,88.72
2022-10-08T04:27:07.957Z,89.07
2022-10-08T04:29:34.753Z,89.40
2022-10-08T04:32:01.629Z,89.67
2022-10-08T04:34:29.209Z,89.86
2022-10-08T04:36:56.406Z,89.84
2022-10-08T04:39:23.555Z,90.24
2022-10-08T04:41:50.391Z,91.22
2022-10-08T04:44:17.525Z,91.00
2022-10-08T04:46:44.339Z,91.34
2022-10-08T04:49:12.259Z,91.22
2022-10-08T04:51:39.051Z,91.55
2022-10-08T04:54:05.893Z,90.96
2022-10-08T04:56:35.661Z,90.71
2022-10-08T04:59:02.888Z,90.55
2022-10-08T05:01:30.661Z,90.62
2022-10-08T05:03:59.289Z,90.38
2022-10-08T05:06:29.602Z,90.33
2022-10-08T05:08:59.902Z,90.27
2022-10-08T05:11:27.797Z,90.56
2022-10-08T05:13:56.705Z,90.68
2022-10-08T05:16:25.098Z,90.86
2022-10-08T05:18:52.334Z,91.28
2022-10-08T05:21:24.091Z,90.90
2022-10-08T05:23:58.635Z,90.73
2022-10-08T05:26:56.258Z,90.59
2022-10-08T05:29:16.418Z,90.44
2022-10-08T05:31:44.227Z,90.35
2022-10-08T05:34:14.044Z,90.17
2022-10-08T05:36:41.737Z,90.07
2022-10-08T05:39:08.625Z,90.18
2022-10-08T05:41:37.748Z,90.04
2022-10-08T05:44:07.517Z,90.64
2022-10-08T05:46:36.744Z,90.38
2022-10-08T05:49:06.532Z,90.60
2022-10-08T05:51:33.479Z,90.48
2022-10-08T05:54:01.557Z,90.36
2022-10-08T05:56:29.150Z,90.04
2022-10-08T05:58:56.317Z,90.15
2022-10-08T06:01:28.377Z,90.06
2022-10-08T06:04:08.048Z,90.25
2022-10-08T06:06:38.392Z,89.94
2022-10-08T06:09:06.926Z,89.93
2022-10-08T06:11:36.416Z,90.02
2022-10-08T06:14:06.330Z,90.22
2022-10-08T06:16:34.757Z,90.30
2022-10-08T06:19:03.348Z,90.32
2022-10-08T06:21:31.337Z,90.25
2022-10-08T06:24:05.475Z,90.39
2022-10-08T06:26:37.307Z,90.34
2022-10-08T06:29:10.860Z,91.03
2022-10-08T06:31:38.166Z,91.37
2022-10-08T06:34:05.653Z,91.39
2022-10-08T06:36:34.502Z,91.68
2022-10-08T06:39:07.249Z,91.75
2022-10-08T06:41:35.314Z,91.67
2022-10-08T06:44:10.801Z,91.55
2022-10-08T06:46:37.635Z,91.58
2022-10-08T06:49:06.289Z,91.48
2022-10-08T06:51:34.229Z,91.60
2022-10-08T06:54:07.355Z,92.04
2022-10-08T06:56:36.557Z,91.89
2022-10-08T06:59:05.060Z,91.90
2022-10-08T07:01:34.141Z,91.82
2022-10-08T07:04:03.365Z,91.71
2022-10-08T07:06:30.610Z,91.68
2022-10-08T07:09:00.901Z,91.54
2022-10-08T07:11:29.078Z,91.61
2022-10-08T07:13:56.796Z,91.33
2022-10-08T07:16:26.865Z,91.49
2022-10-08T07:18:57.932Z,91.55
2022-10-08T07:21:25.631Z,91.13
2022-10-08T07:23:53.093Z,90.93
2022-10-08T07:26:33.463Z,90.29
2022-10-08T07:29:08.487Z,90.05
2022-10-08T07:31:37.004Z,92.30
2022-10-08T07:34:11.600Z,87.78
2022-10-08T07:36:39.850Z,86.63
2022-10-08T07:39:12.823Z,85.66
2022-10-08T07:41:40.030Z,85.01
2022-10-08T07:44:07.530Z,84.18
2022-10-08T07:46:37.240Z,83.69
2022-10-08T07:49:05.069Z,82.53
2022-10-08T07:51:34.965Z,82.14
2022-10-08T07:54:04.536Z,81.39
2022-10-08T07:56:32.196Z,81.31
2022-10-08T07:59:01.117Z,81.12
2022-10-08T08:01:30.202Z,81.48
2022-10-08T08:04:02.266Z,81.66
2022-10-08T08:06:31.895Z,82.33
2022-10-08T08:09:01.465Z,82.27
2022-10-08T08:11:29.189Z,82.32
2022-10-08T08:13:59.108Z,82.25
2022-10-08T08:16:29.353Z,82.30
2022-10-08T08:19:00.162Z,82.22
2022-10-08T08:21:34.591Z,82.17
2022-10-08T08:24:13.786Z,81.76
2022-10-08T08:26:43.009Z,81.95
2022-10-08T08:29:18.822Z,81.24
2022-10-08T08:31:48.661Z,81.90
2022-10-08T08:34:20.246Z,81.20
2022-10-08T08:36:49.532Z,81.50
2022-10-08T08:39:23.378Z,81.28
2022-10-08T08:42:33.573Z,80.40
2022-10-08T08:45:05.610Z,79.93
2022-10-08T08:47:49.717Z,79.97
2022-10-08T08:50:29.551Z,79.76
2022-10-08T08:52:57.314Z,79.98
2022-10-08T08:55:35.945Z,80.26
2022-10-08T08:58:40.340Z,79.47
2022-10-08T09:01:09.905Z,79.06
2022-10-08T09:03:52.784Z,78.25
2022-10-08T09:06:23.826Z,77.99
2022-10-08T09:08:57.336Z,77.15
2022-10-08T09:11:24.909Z,75.77
2022-10-08T09:14:31.329Z,76.25
2022-10-08T09:17:04.579Z,76.01
2022-10-08T09:19:32.160Z,76.34
2022-10-08T09:21:59.012Z,77.31
2022-10-08T09:24:26.165Z,77.03
2022-10-08T09:26:54.058Z,77.54
2022-10-08T09:29:39.016Z,77.17
2022-10-08T09:32:06.004Z,77.10
2022-10-08T09:34:33.668Z,76.33
2022-10-08T09:37:23.210Z,76.51
2022-10-08T09:40:11.649Z,77.40
2022-10-08T09:42:38.821Z,77.23
2022-10-08T09:45:30.492Z,76.97
2022-10-08T09:48:19.737Z,76.77
2022-10-08T09:50:55.406Z,76.98
2022-10-08T09:53:26.856Z,77.40
2022-10-08T09:56:03.592Z,76.21
2022-10-08T09:58:34.597Z,75.80
2022-10-08T10:01:15.569Z,76.55
2022-10-08T10:04:03.519Z,74.97
2022-10-08T10:06:35.493Z,75.41
2022-10-08T10:09:11.674Z,75.56
2022-10-08T10:11:48.027Z,75.27
2022-10-08T10:14:28.522Z,74.46
2022-10-08T10:17:03.214Z,75.13
2022-10-08T10:19:48.206Z,74.50
2022-10-08T10:22:27.572Z,74.10
2022-10-08T10:25:14.626Z,74.06
2022-10-08T10:28:09.120Z,73.74
2022-10-08T10:30:53.105Z,73.13
2022-10-08T10:33:34.361Z,73.47
2022-10-08T10:36:09.285Z,73.70
2022-10-08T10:38:43.343Z,73.21
2022-10-08T10:41:29.180Z,72.96
2022-10-08T10:44:04.785Z,72.48
2022-10-08T10:46:42.057Z,72.27
2022-10-08T10:49:17.930Z,70.94
2022-10-08T10:52:00.726Z,70.56
2022-10-08T10:54:52.113Z,69.94
2022-10-08T10:57:25.048Z,69.28
2022-10-08T11:00:09.526Z,68.55
2022-10-08T11:02:54.341Z,69.24
2022-10-08T11:05:28.123Z,68.12
2022-10-08T11:08:19.464Z,69.28
2022-10-08T11:11:17.950Z,67.32
2022-10-08T11:14:16.892Z,66.78
2022-10-08T11:16:51.852Z,66.39
2022-10-08T11:19:33.405Z,66.25
2022-10-08T11:22:04.434Z,66.83
2022-10-08T11:24:55.791Z,65.41
2022-10-08T11:27:29.463Z,65.06
2022-10-08T11:30:15.801Z,64.70
2022-10-08T11:32:50.563Z,64.47
2022-10-08T11:35:40.798Z,64.04
2022-10-08T11:38:26.852Z,62.92
2022-10-08T11:41:16.264Z,62.72
2022-10-08T11:43:55.985Z,62.48
2022-10-08T11:46:36.715Z,62.29
2022-10-08T11:49:15.824Z,63.08
2022-10-08T11:51:53.984Z,63.42
2022-10-08T11:54:38.910Z,63.15
2022-10-08T11:57:24.994Z,62.68
2022-10-08T12:00:33.209Z,62.24
2022-10-08T12:03:01.270Z,62.71
2022-10-08T12:05:51.037Z,61.06
2022-10-08T12:08:56.574Z,63.16
2022-10-08T12:11:32.457Z,62.75
2022-10-08T12:14:11.510Z,62.86
2022-10-08T12:16:47.626Z,62.42
2022-10-08T12:19:33.238Z,61.45
2022-10-08T12:22:25.352Z,61.23
2022-10-08T12:24:58.092Z,61.42
2022-10-08T12:27:32.065Z,60.68
2022-10-08T12:30:14.481Z,61.21
2022-10-08T12:32:44.389Z,60.63
2022-10-08T12:35:24.193Z,60.97
2022-10-08T12:38:14.832Z,60.32
2022-10-08T12:40:50.829Z,61.16
2022-10-08T12:43:40.838Z,61.29
2022-10-08T12:46:50.477Z,60.35
2022-10-08T12:49:36.006Z,61.10
2022-10-08T12:52:11.001Z,61.02
2022-10-08T12:54:52.305Z,60.98
2022-10-08T12:57:39.235Z,58.91
2022-10-08T13:00:35.764Z,60.28
2022-10-08T13:03:16.629Z,59.53
2022-10-08T13:05:44.290Z,58.94
2022-10-08T13:08:32.280Z,58.31
2022-10-08T13:11:09.330Z,58.16
2022-10-08T13:13:45.118Z,58.67
2022-10-08T13:16:20.839Z,58.59
2022-10-08T13:19:01.562Z,58.07
2022-10-08T13:21:31.294Z,58.08
2022-10-08T13:23:59.696Z,57.70
2022-10-08T13:26:48.469Z,57.01
2022-10-08T13:29:24.325Z,57.28
2022-10-08T13:32:04.132Z,56.62
2022-10-08T13:34:52.156Z,55.87
2022-10-08T13:37:22.573Z,56.19
2022-10-08T13:39:56.262Z,55.35
2022-10-08T13:42:31.003Z,55.87
2022-10-08T13:45:00.143Z,56.59
2022-10-08T13:47:29.143Z,55.77
2022-10-08T13:50:02.411Z,55.75
2022-10-08T13:52:33.162Z,54.37
2022-10-08T13:55:07.937Z,54.92
2022-10-08T13:57:34.767Z,55.56
2022-10-08T14:00:01.541Z,55.57
2022-10-08T14:02:28.365Z,53.74
2022-10-08T14:04:55.129Z,53.65
2022-10-08T14:07:32.040Z,54.17
2022-10-08T14:10:01.198Z,54.02
2022-10-08T14:12:33.208Z,54.27
2022-10-08T14:15:01.437Z,53.98
2022-10-08T14:17:28.195Z,54.38
2022-10-08T14:19:55.687Z,55.18
2022-10-08T14:22:23.339Z,55.12
2022-10-08T14:24:50.774Z,55.49
2022-10-08T14:27:17.785Z,55.97
2022-10-08T14:29:44.551Z,55.87
2022-10-08T14:32:12.246Z,55.54
2022-10-08T14:34:39.477Z,53.80
2022-10-08T14:37:06.998Z,54.69
2022-10-08T14:39:33.915Z,54.47
2022-10-08T14:42:00.697Z,54.87
2022-10-08T14:44:27.850Z,54.79
2022-10-08T14:46:54.685Z,55.13
2022-10-08T14:49:22.489Z,55.62
2022-10-08T14:51:49.285Z,55.18
2022-10-08T14:54:16.358Z,55.00
2022-10-08T14:56:43.719Z,54.42
2022-10-08T14:59:11.888Z,54.25
2022-10-08T15:01:39.656Z,55.04
2022-10-08T15:04:07.423Z,55.14
2022-10-08T15:06:34.840Z,55.56
2022-10-08T15:09:01.688Z,55.68
2022-10-08T15:11:28.599Z,55.89
2022-10-08T15:13:55.715Z,55.92
2022-10-08T15:16:22.882Z,56.41
2022-10-08T15:18:49.992Z,55.20
2022-10-08T15:21:17.201Z,55.78
2022-10-08T15:23:44.000Z,55.92
2022-10-08T15:26:17.892Z,55.35
2022-10-08T15:28:46.456Z,55.98
2022-10-08T15:31:16.171Z,56.27
2022-10-08T15:33:46.490Z,55.97
2022-10-08T15:36:25.759Z,56.16
2022-10-08T15:39:19.309Z,56.72
2022-10-08T15:41:52.769Z,56.63
2022-10-08T15:44:22.595Z,56.25
2022-10-08T15:46:59.577Z,56.85
2022-10-08T15:49:34.912Z,56.98
2022-10-08T15:52:03.770Z,57.58
2022-10-08T15:54:30.577Z,57.32
2022-10-08T15:56:57.549Z,57.39
2022-10-08T15:59:24.324Z,57.87
2022-10-08T16:01:51.140Z,58.06
2022-10-08T16:04:18.121Z,58.27
2022-10-08T16:06:45.641Z,58.01
2022-10-08T16:09:14.543Z,58.38
2022-10-08T16:11:42.813Z,58.09
2022-10-08T16:14:23.793Z,58.24
2022-10-08T16:16:52.086Z,58.50
2022-10-08T16:19:22.975Z,58.88
2022-10-08T16:21:54.494Z,59.37
2022-10-08T16:24:21.546Z,59.95
2022-10-08T16:26:50.203Z,60.25
2022-10-08T16:29:18.657Z,60.81
2022-10-08T16:31:46.698Z,61.07
2022-10-08T16:34:20.041Z,61.57
2022-10-08T16:36:48.504Z,61.61
2022-10-08T16:39:18.507Z,62.18
2022-10-08T16:41:46.398Z,62.24
2022-10-08T16:44:16.430Z,62.31
2022-10-08T16:46:48.770Z,62.25
2022-10-08T16:49:24.315Z,62.39
2022-10-08T16:51:55.380Z,63.04
2022-10-08T16:54:22.420Z,63.19
2022-10-08T16:56:49.203Z,63.45
2022-10-08T16:59:20.960Z,63.71
2022-10-08T17:01:51.962Z,64.30
2022-10-08T17:04:21.323Z,64.83
2022-10-08T17:06:48.959Z,65.34
2022-10-08T17:09:15.906Z,66.12
2022-10-08T17:11:42.987Z,66.28
2022-10-08T17:14:11.902Z,66.30
2022-10-08T17:16:39.855Z,66.56
2022-10-08T17:19:06.694Z,67.22
2022-10-08T17:21:35.213Z,67.27
2022-10-08T17:24:03.117Z,67.75
2022-10-08T17:26:31.646Z,67.71
2022-10-08T17:29:06.984Z,68.60
2022-10-08T17:31:34.798Z,68.67
2022-10-08T17:34:03.159Z,68.51
2022-10-08T17:36:34.805Z,68.81
2022-10-08T17:39:04.341Z,68.83
2022-10-08T17:41:39.964Z,69.27
2022-10-08T17:44:09.255Z,69.47
2022-10-08T17:46:47.034Z,69.90
2022-10-08T17:49:17.180Z,70.08
2022-10-08T17:51:44.990Z,70.46
2022-10-08T17:54:15.257Z,70.67
2022-10-08T17:56:42.488Z,70.93
2022-10-08T17:59:09.464Z,70.81
2022-10-08T18:01:40.237Z,71.10
2022-10-08T18:04:14.489Z,71.62
2022-10-08T18:06:43.343Z,71.84
2022-10-08T18:09:19.002Z,72.13
2022-10-08T18:11:51.053Z,71.71
2022-10-08T18:14:18.380Z,72.39
2022-10-08T18:16:48.147Z,72.57
2022-10-08T18:19:16.368Z,72.60
2022-10-08T18:21:43.197Z,72.94
2022-10-08T18:24:11.209Z,73.00
2022-10-08T18:26:38.124Z,73.49
2022-10-08T18:29:10.215Z,73.40
2022-10-08T18:31:40.367Z,73.52
2022-10-08T18:34:13.551Z,73.71
2022-10-08T18:36:43.231Z,74.17
2022-10-08T18:39:19.171Z,74.07
2022-10-08T18:41:49.299Z,74.51
2022-10-08T18:44:21.610Z,74.78
2022-10-08T18:46:48.995Z,74.98
2022-10-08T18:49:19.138Z,75.38
2022-10-08T18:51:49.166Z,75.50
2022-10-08T18:54:16.126Z,75.68
2022-10-08T18:56:43.039Z,75.58
2022-10-08T18:59:15.210Z,76.33
2022-10-08T19:01:46.340Z,76.09
2022-10-08T19:04:17.830Z,76.60
2022-10-08T19:06:46.192Z,76.52
2022-10-08T19:09:13.948Z,77.09
2022-10-08T19:11:47.836Z,76.56
2022-10-08T19:14:18.689Z,76.88
2022-10-08T19:16:46.460Z,77.01
2022-10-08T19:19:17.893Z,77.12
2022-10-08T19:21:45.634Z,77.41
2022-10-08T19:24:19.393Z,77.89
2022-10-08T19:26:48.356Z,78.13
2022-10-08T19:29:19.992Z,78.06
2022-10-08T19:31:47.978Z,78.29
2022-10-08T19:34:21.188Z,78.15
2022-10-08T19:36:48.419Z,78.04
2022-10-08T19:39:22.276Z,78.55
2022-10-08T19:41:50.188Z,78.58
2022-10-08T19:44:17.837Z,78.79
2022-10-08T19:46:45.734Z,78.89
2022-10-08T19:49:12.831Z,78.85
2022-10-08T19:51:40.827Z,79.19
2022-10-08T19:54:08.313Z,79.33
2022-10-08T19:56:36.132Z,79.23
2022-10-08T19:59:03.734Z,79.13
2022-10-08T20:01:34.648Z,79.43
2022-10-08T20:04:04.180Z,79.68
2022-10-08T20:06:33.797Z,79.69
2022-10-08T20:09:02.705Z,79.75
2022-10-08T20:11:31.469Z,79.68
2022-10-08T20:13:59.820Z,79.77
2022-10-08T20:16:37.588Z,80.13
2022-10-08T20:19:23.530Z,80.23
2022-10-08T20:21:51.832Z,80.41
2022-10-08T20:24:19.781Z,80.76
2022-10-08T20:26:48.445Z,80.04
2022-10-08T20:29:19.837Z,80.43
2022-10-08T20:31:55.184Z,81.02
2022-10-08T20:34:27.180Z,81.12
2022-10-08T20:36:54.716Z,80.90
2022-10-08T20:39:23.063Z,81.09
2022-10-08T20:41:51.816Z,81.31
2022-10-08T20:44:19.027Z,81.40
2022-10-08T20:46:46.690Z,81.65
2022-10-08T20:49:14.242Z,81.68
2022-10-08T20:51:42.980Z,81.01
2022-10-08T20:54:14.594Z,81.45
2022-10-08T20:56:42.795Z,81.67
2022-10-08T20:59:15.464Z,81.82
2022-10-08T21:01:43.667Z,81.36
2022-10-08T21:04:10.768Z,81.69
2022-10-08T21:06:59.570Z,81.62
2022-10-08T21:09:26.556Z,81.99
2022-10-08T21:11:54.398Z,82.17
2022-10-08T21:14:22.870Z,82.12
2022-10-08T21:16:50.424Z,82.06
2022-10-08T21:19:22.235Z,82.18
2022-10-08T21:21:49.432Z,81.84
2022-10-08T21:24:16.333Z,82.14
2022-10-08T21:26:43.497Z,81.52
2022-10-08T21:29:13.386Z,82.07
2022-10-08T21:31:42.019Z,82.54
2022-10-08T21:34:12.458Z,82.47
2022-10-08T21:36:41.275Z,82.43
2022-10-08T21:39:14.163Z,82.56
2022-10-08T21:41:40.992Z,82.40
2022-10-08T21:44:08.801Z,82.63
2022-10-08T21:46:40.145Z,82.41
2022-10-08T21:49:15.037Z,82.34
2022-10-08T21:51:42.946Z,82.44
2022-10-08T21:54:11.367Z,82.38
2022-10-08T21:56:40.850Z,82.24
2022-10-08T21:59:12.649Z,82.62
2022-10-08T22:01:45.223Z,82.84
2022-10-08T22:04:22.453Z,83.36
2022-10-08T22:06:53.103Z,83.04
2022-10-08T22:09:26.695Z,82.85
2022-10-08T22:11:55.146Z,82.61
2022-10-08T22:14:23.321Z,82.73
2022-10-08T22:16:50.877Z,82.90
2022-10-08T22:19:18.315Z,83.81
2022-10-08T22:21:45.992Z,83.56
2022-10-08T22:24:14.081Z,83.58
2022-10-08T22:26:44.809Z,83.29
2022-10-08T22:29:12.590Z,83.42
2022-10-08T22:31:40.014Z,83.58
2022-10-08T22:34:06.976Z,83.31
2022-10-08T22:36:44.136Z,83.10
2022-10-08T22:39:11.929Z,83.45
2022-10-08T22:41:38.855Z,83.51
2022-10-08T22:44:05.847Z,83.61
2022-10-08T22:46:38.918Z,83.59
2022-10-08T22:49:09.345Z,83.57
2022-10-08T22:51:37.632Z,83.73
2022-10-08T22:54:05.425Z,83.91
2022-10-08T22:56:32.501Z,83.93
2022-10-08T22:59:00.729Z,83.93
2022-10-08T23:01:29.880Z,84.03
2022-10-08T23:03:57.485Z,83.80
2022-10-08T23:06:31.949Z,83.79
2022-10-08T23:09:02.484Z,83.80
2022-10-08T23:11:31.913Z,83.69
2022-10-08T23:14:00.495Z,84.08
2022-10-08T23:16:29.378Z,84.12
2022-10-08T23:19:03.336Z,84.14
2022-10-08T23:21:30.730Z,83.75
2022-10-08T23:23:58.392Z,84.17
2022-10-08T23:26:26.943Z,83.91
2022-10-08T23:28:56.652Z,84.05
2022-10-08T23:31:27.792Z,84.22
2022-10-08T23:33:55.777Z,84.01
2022-10-08T23:36:26.983Z,83.79
2022-10-08T23:38:54.020Z,83.65
2022-10-08T23:41:21.019Z,84.22
2022-10-08T23:43:50.549Z,84.29
2022-10-08T23:46:21.345Z,84.81
2022-10-08T23:48:49.711Z,84.60
2022-10-08T23:51:18.138Z,84.57
2022-10-08T23:53:46.017Z,84.37
2022-10-08T23:56:14.283Z,84.54
2022-10-08T23:58:42.020Z,84.55
